sensor_id;sensor_type;location;lat;lon;timestamp;pressure;altitude;pressure_sealevel;temperature;humidity
46583;BME280;32309;48.858;8.252;2023-04-15T00:01:40;99352.28;;;7.00;59.03
46583;BME280;32309;48.858;8.252;2023-04-15T00:03:40;99357.41;;;7.00;58.93
46583;BME280;32309;48.858;8.252;2023-04-15T00:05:41;99354.84;;;7.00;58.38
46583;BME280;32309;48.858;8.252;2023-04-15T00:07:41;99356.66;;;6.98;59.15
46583;BME280;32309;48.858;8.252;2023-04-15T00:09:41;99351.59;;;6.96;57.40
46583;BME280;32309;48.858;8.252;2023-04-15T00:11:41;99347.47;;;6.94;58.79
46583;BME280;32309;48.858;8.252;2023-04-15T00:13:42;99351.88;;;6.92;58.49
46583;BME280;32309;48.858;8.252;2023-04-15T00:15:42;99353.81;;;6.88;58.11
46583;BME280;32309;48.858;8.252;2023-04-15T00:17:43;99349.47;;;6.89;57.99
46583;BME280;32309;48.858;8.252;2023-04-15T00:19:43;99347.75;;;6.89;58.91
46583;BME280;32309;48.858;8.252;2023-04-15T00:21:44;99342.69;;;6.88;57.48
46583;BME280;32309;48.858;8.252;2023-04-15T00:23:45;99345.41;;;6.85;60.30
46583;BME280;32309;48.858;8.252;2023-04-15T00:25:50;99340.34;;;6.83;57.73
46583;BME280;32309;48.858;8.252;2023-04-15T00:27:50;99341.91;;;6.86;58.46
46583;BME280;32309;48.858;8.252;2023-04-15T00:29:51;99330.97;;;6.82;59.43
46583;BME280;32309;48.858;8.252;2023-04-15T00:31:51;99333.63;;;6.80;58.20
46583;BME280;32309;48.858;8.252;2023-04-15T00:33:51;99332.97;;;6.77;57.20
46583;BME280;32309;48.858;8.252;2023-04-15T00:35:52;99338.19;;;6.75;59.40
46583;BME280;32309;48.858;8.252;2023-04-15T00:37:52;99328.81;;;6.74;59.76
46583;BME280;32309;48.858;8.252;2023-04-15T00:39:53;99337.28;;;6.76;59.73
46583;BME280;32309;48.858;8.252;2023-04-15T00:41:53;99332.16;;;6.76;57.83
46583;BME280;32309;48.858;8.252;2023-04-15T00:43:54;99338.97;;;6.77;59.94
46583;BME280;32309;48.858;8.252;2023-04-15T00:45:54;99334.63;;;6.78;60.64
46583;BME280;32309;48.858;8.252;2023-04-15T00:47:57;99333.63;;;6.80;60.58
46583;BME280;32309;48.858;8.252;2023-04-15T00:49:58;99331.97;;;6.79;58.84
46583;BME280;32309;48.858;8.252;2023-04-15T00:51:58;99326.00;;;6.79;60.88
46583;BME280;32309;48.858;8.252;2023-04-15T00:53:58;99328.47;;;6.80;61.21
46583;BME280;32309;48.858;8.252;2023-04-15T00:55:59;99324.16;;;6.81;60.57
46583;BME280;32309;48.858;8.252;2023-04-15T00:57:59;99335.19;;;6.83;59.26
46583;BME280;32309;48.858;8.252;2023-04-15T01:00:00;99330.13;;;6.81;60.19
46583;BME280;32309;48.858;8.252;2023-04-15T01:02:01;99331.06;;;6.80;61.28
46583;BME280;32309;48.858;8.252;2023-04-15T01:04:01;99332.06;;;6.78;60.67
46583;BME280;32309;48.858;8.252;2023-04-15T01:06:02;99333.91;;;6.76;59.50
46583;BME280;32309;48.858;8.252;2023-04-15T01:08:02;99328.75;;;6.76;61.04
46583;BME280;32309;48.858;8.252;2023-04-15T01:10:03;99329.56;;;6.76;60.85
46583;BME280;32309;48.858;8.252;2023-04-15T01:12:04;99335.63;;;6.75;61.33
46583;BME280;32309;48.858;8.252;2023-04-15T01:14:06;99339.97;;;6.75;59.91
46583;BME280;32309;48.858;8.252;2023-04-15T01:16:09;99341.88;;;6.71;60.70
46583;BME280;32309;48.858;8.252;2023-04-15T01:18:11;99341.16;;;6.69;61.10
46583;BME280;32309;48.858;8.252;2023-04-15T01:20:11;99340.38;;;6.67;61.16
46583;BME280;32309;48.858;8.252;2023-04-15T01:22:12;99341.28;;;6.66;57.94
46583;BME280;32309;48.858;8.252;2023-04-15T01:24:12;99334.75;;;6.60;58.59
46583;BME280;32309;48.858;8.252;2023-04-15T01:26:16;99336.75;;;6.55;58.35
46583;BME280;32309;48.858;8.252;2023-04-15T01:28:17;99336.44;;;6.45;61.43
46583;BME280;32309;48.858;8.252;2023-04-15T01:30:17;99331.38;;;6.44;61.08
46583;BME280;32309;48.858;8.252;2023-04-15T01:32:18;99339.03;;;6.45;62.06
46583;BME280;32309;48.858;8.252;2023-04-15T01:34:18;99330.31;;;6.48;61.08
46583;BME280;32309;48.858;8.252;2023-04-15T01:36:18;99337.09;;;6.49;59.13
46583;BME280;32309;48.858;8.252;2023-04-15T01:38:19;99335.44;;;6.48;61.68
46583;BME280;32309;48.858;8.252;2023-04-15T01:40:19;99332.03;;;6.47;61.28
46583;BME280;32309;48.858;8.252;2023-04-15T01:42:20;99337.34;;;6.44;62.55
46583;BME280;32309;48.858;8.252;2023-04-15T01:44:21;99341.75;;;6.42;62.83
46583;BME280;32309;48.858;8.252;2023-04-15T01:46:21;99334.94;;;6.41;62.03
46583;BME280;32309;48.858;8.252;2023-04-15T01:48:22;99340.94;;;6.42;62.18
46583;BME280;32309;48.858;8.252;2023-04-15T01:50:22;99340.34;;;6.37;63.45
46583;BME280;32309;48.858;8.252;2023-04-15T01:52:22;99344.69;;;6.36;63.60
46583;BME280;32309;48.858;8.252;2023-04-15T01:54:22;99337.97;;;6.33;63.38
46583;BME280;32309;48.858;8.252;2023-04-15T01:56:23;99343.25;;;6.30;63.73
46583;BME280;32309;48.858;8.252;2023-04-15T01:58:23;99337.28;;;6.30;63.43
46583;BME280;32309;48.858;8.252;2023-04-15T02:00:24;99333.97;;;6.28;64.00
46583;BME280;32309;48.858;8.252;2023-04-15T02:02:24;99333.97;;;6.28;63.94
46583;BME280;32309;48.858;8.252;2023-04-15T02:04:24;99336.72;;;6.25;63.69
46583;BME280;32309;48.858;8.252;2023-04-15T02:06:25;99332.38;;;6.25;64.62
46583;BME280;32309;48.858;8.252;2023-04-15T02:08:27;99335.72;;;6.27;63.81
46583;BME280;32309;48.858;8.252;2023-04-15T02:10:27;99333.97;;;6.28;63.77
46583;BME280;32309;48.858;8.252;2023-04-15T02:12:27;99343.53;;;6.26;64.20
46583;BME280;32309;48.858;8.252;2023-04-15T02:14:28;99340.94;;;6.26;64.24
46583;BME280;32309;48.858;8.252;2023-04-15T02:16:28;99340.03;;;6.27;64.92
46583;BME280;32309;48.858;8.252;2023-04-15T02:18:28;99341.69;;;6.28;63.53
46583;BME280;32309;48.858;8.252;2023-04-15T02:20:28;99332.22;;;6.28;64.28
46583;BME280;32309;48.858;8.252;2023-04-15T02:22:33;99334.81;;;6.28;64.38
46583;BME280;32309;48.858;8.252;2023-04-15T02:24:34;99340.94;;;6.26;63.52
46583;BME280;32309;48.858;8.252;2023-04-15T02:26:34;99329.16;;;6.22;63.96
46583;BME280;32309;48.858;8.252;2023-04-15T02:28:35;99342.84;;;6.22;63.94
46583;BME280;32309;48.858;8.252;2023-04-15T02:30:35;99339.59;;;6.19;63.62
46583;BME280;32309;48.858;8.252;2023-04-15T02:32:36;99338.28;;;6.11;64.19
46583;BME280;32309;48.858;8.252;2023-04-15T02:34:38;99344.34;;;6.10;63.43
46583;BME280;32309;48.858;8.252;2023-04-15T02:36:40;99344.44;;;6.09;64.26
46583;BME280;32309;48.858;8.252;2023-04-15T02:38:40;99336.22;;;6.02;64.56
46583;BME280;32309;48.858;8.252;2023-04-15T02:40:41;99339.78;;;5.99;64.73
46583;BME280;32309;48.858;8.252;2023-04-15T02:42:42;99345.88;;;5.97;64.74
46583;BME280;32309;48.858;8.252;2023-04-15T02:44:43;99340.91;;;5.94;65.21
46583;BME280;32309;48.858;8.252;2023-04-15T02:46:43;99341.06;;;5.91;65.44
46583;BME280;32309;48.858;8.252;2023-04-15T02:48:45;99339.38;;;5.90;64.77
46583;BME280;32309;48.858;8.252;2023-04-15T02:50:45;99338.47;;;5.91;64.90
46583;BME280;32309;48.858;8.252;2023-04-15T02:52:46;99340.97;;;5.92;64.92
46583;BME280;32309;48.858;8.252;2023-04-15T02:54:47;99341.81;;;5.93;64.88
46583;BME280;32309;48.858;8.252;2023-04-15T02:56:47;99342.63;;;5.93;65.29
46583;BME280;32309;48.858;8.252;2023-04-15T02:58:48;99344.22;;;5.96;64.86
46583;BME280;32309;48.858;8.252;2023-04-15T03:00:55;99343.31;;;5.97;64.68
46583;BME280;32309;48.858;8.252;2023-04-15T03:03:00;99346.59;;;6.01;64.89
46583;BME280;32309;48.858;8.252;2023-04-15T03:05:01;99346.66;;;5.99;64.34
46583;BME280;32309;48.858;8.252;2023-04-15T03:07:01;99347.41;;;6.01;64.85
46583;BME280;32309;48.858;8.252;2023-04-15T03:09:02;99348.47;;;5.97;65.14
46583;BME280;32309;48.858;8.252;2023-04-15T03:11:02;99351.19;;;5.94;64.89
46583;BME280;32309;48.858;8.252;2023-04-15T03:13:03;99352.34;;;5.88;64.39
46583;BME280;32309;48.858;8.252;2023-04-15T03:15:03;99356.75;;;5.86;64.40
46583;BME280;32309;48.858;8.252;2023-04-15T03:17:04;99356.16;;;5.81;65.48
46583;BME280;32309;48.858;8.252;2023-04-15T03:19:04;99364.00;;;5.78;64.62
46583;BME280;32309;48.858;8.252;2023-04-15T03:21:05;99360.84;;;5.73;62.76
46583;BME280;32309;48.858;8.252;2023-04-15T03:23:05;99362.84;;;5.68;63.95
46583;BME280;32309;48.858;8.252;2023-04-15T03:25:05;99366.63;;;5.60;65.64
46583;BME280;32309;48.858;8.252;2023-04-15T03:27:06;99359.09;;;5.57;64.44
46583;BME280;32309;48.858;8.252;2023-04-15T03:29:07;99359.09;;;5.57;65.58
46583;BME280;32309;48.858;8.252;2023-04-15T03:31:07;99360.00;;;5.56;65.69
46583;BME280;32309;48.858;8.252;2023-04-15T03:33:07;99362.66;;;5.55;66.26
46583;BME280;32309;48.858;8.252;2023-04-15T03:35:08;99359.19;;;5.56;66.67
46583;BME280;32309;48.858;8.252;2023-04-15T03:37:08;99364.31;;;5.56;66.03
46583;BME280;32309;48.858;8.252;2023-04-15T03:39:09;99362.66;;;5.55;66.09
46583;BME280;32309;48.858;8.252;2023-04-15T03:41:09;99358.31;;;5.55;64.86
46583;BME280;32309;48.858;8.252;2023-04-15T03:43:12;99354.25;;;5.51;66.69
46583;BME280;32309;48.858;8.252;2023-04-15T03:45:12;99358.56;;;5.50;66.95
46583;BME280;32309;48.858;8.252;2023-04-15T03:47:12;99361.78;;;5.54;66.18
46583;BME280;32309;48.858;8.252;2023-04-15T03:49:13;99360.97;;;5.54;66.26
46583;BME280;32309;48.858;8.252;2023-04-15T03:51:13;99367.88;;;5.53;65.47
46583;BME280;32309;48.858;8.252;2023-04-15T03:53:14;99355.31;;;5.47;66.47
46583;BME280;32309;48.858;8.252;2023-04-15T03:55:14;99362.94;;;5.48;66.15
46583;BME280;32309;48.858;8.252;2023-04-15T03:57:15;99359.56;;;5.48;66.02
46583;BME280;32309;48.858;8.252;2023-04-15T03:59:15;99362.94;;;5.48;66.29
46583;BME280;32309;48.858;8.252;2023-04-15T04:01:15;99355.41;;;5.45;66.30
46583;BME280;32309;48.858;8.252;2023-04-15T04:03:15;99361.53;;;5.43;66.73
46583;BME280;32309;48.858;8.252;2023-04-15T04:05:16;99356.41;;;5.43;66.76
46583;BME280;32309;48.858;8.252;2023-04-15T04:07:17;99355.53;;;5.42;67.61
46583;BME280;32309;48.858;8.252;2023-04-15T04:09:17;99361.53;;;5.43;67.33
46583;BME280;32309;48.858;8.252;2023-04-15T04:11:17;99361.63;;;5.41;66.56
46583;BME280;32309;48.858;8.252;2023-04-15T04:13:18;99361.66;;;5.40;67.62
46583;BME280;32309;48.858;8.252;2023-04-15T04:15:18;99366.00;;;5.39;67.44
46583;BME280;32309;48.858;8.252;2023-04-15T04:17:18;99369.63;;;5.35;66.92
46583;BME280;32309;48.858;8.252;2023-04-15T04:19:18;99366.16;;;5.36;67.17
46583;BME280;32309;48.858;8.252;2023-04-15T04:21:19;99376.56;;;5.33;66.89
46583;BME280;32309;48.858;8.252;2023-04-15T04:23:20;99370.84;;;5.28;67.89
46583;BME280;32309;48.858;8.252;2023-04-15T04:25:20;99373.63;;;5.23;67.48
46583;BME280;32309;48.858;8.252;2023-04-15T04:27:21;99366.16;;;5.19;66.61
46583;BME280;32309;48.858;8.252;2023-04-15T04:29:21;99373.19;;;5.15;66.52
46583;BME280;32309;48.858;8.252;2023-04-15T04:31:22;99370.75;;;5.12;66.67
46583;BME280;32309;48.858;8.252;2023-04-15T04:33:22;99370.09;;;5.08;65.03
46583;BME280;32309;48.858;8.252;2023-04-15T04:35:22;99381.34;;;5.06;65.76
46583;BME280;32309;48.858;8.252;2023-04-15T04:37:22;99380.44;;;5.07;66.60
46583;BME280;32309;48.858;8.252;2023-04-15T04:39:23;99378.72;;;5.07;67.60
46583;BME280;32309;48.858;8.252;2023-04-15T04:41:23;99376.97;;;5.08;66.57
46583;BME280;32309;48.858;8.252;2023-04-15T04:43:24;99382.88;;;5.10;66.26
46583;BME280;32309;48.858;8.252;2023-04-15T04:45:24;99380.28;;;5.10;67.60
46583;BME280;32309;48.858;8.252;2023-04-15T04:47:24;99373.41;;;5.10;67.36
46583;BME280;32309;48.858;8.252;2023-04-15T04:49:24;99377.66;;;5.11;67.59
46583;BME280;32309;48.858;8.252;2023-04-15T04:51:25;99381.88;;;5.12;67.49
46583;BME280;32309;48.858;8.252;2023-04-15T04:53:25;99380.06;;;5.14;67.57
46583;BME280;32309;48.858;8.252;2023-04-15T04:55:27;99380.00;;;5.16;67.75
46583;BME280;32309;48.858;8.252;2023-04-15T04:57:27;99373.94;;;5.17;67.90
46583;BME280;32309;48.858;8.252;2023-04-15T04:59:27;99379.16;;;5.15;67.99
46583;BME280;32309;48.858;8.252;2023-04-15T05:01:27;99374.00;;;5.15;67.37
46583;BME280;32309;48.858;8.252;2023-04-15T05:03:28;99371.38;;;5.17;66.93
46583;BME280;32309;48.858;8.252;2023-04-15T05:05:28;99371.44;;;5.15;67.59
46583;BME280;32309;48.858;8.252;2023-04-15T05:07:28;99376.41;;;5.19;67.34
46583;BME280;32309;48.858;8.252;2023-04-15T05:09:29;99372.06;;;5.21;68.26
46583;BME280;32309;48.858;8.252;2023-04-15T05:11:31;99381.44;;;5.22;67.69
46583;BME280;32309;48.858;8.252;2023-04-15T05:13:32;99390.63;;;5.26;66.46
46583;BME280;32309;48.858;8.252;2023-04-15T05:15:32;99393.91;;;5.29;67.04
46583;BME280;32309;48.858;8.252;2023-04-15T05:17:34;99391.97;;;5.33;67.67
46583;BME280;32309;48.858;8.252;2023-04-15T05:19:34;99393.53;;;5.37;66.80
46583;BME280;32309;48.858;8.252;2023-04-15T05:21:34;99393.66;;;5.34;63.32
46583;BME280;32309;48.858;8.252;2023-04-15T05:23:34;99394.97;;;5.25;63.99
46583;BME280;32309;48.858;8.252;2023-04-15T05:25:35;99397.41;;;5.09;63.95
46583;BME280;32309;48.858;8.252;2023-04-15T05:27:35;99400.59;;;4.97;64.33
46583;BME280;32309;48.858;8.252;2023-04-15T05:29:35;99407.06;;;4.87;65.33
46583;BME280;32309;48.858;8.252;2023-04-15T05:31:36;99402.91;;;4.84;65.81
46583;BME280;32309;48.858;8.252;2023-04-15T05:55:16;99416.50;;;5.23;67.65
46583;BME280;32309;48.858;8.252;2023-04-15T05:57:20;99416.66;;;5.37;67.28
46583;BME280;32309;48.858;8.252;2023-04-15T05:59:26;99423.13;;;5.44;68.59
46583;BME280;32309;48.858;8.252;2023-04-15T06:01:37;99427.13;;;5.68;70.25
46583;BME280;32309;48.858;8.252;2023-04-15T06:09:23;99421.91;;;6.52;68.83
46583;BME280;32309;48.858;8.252;2023-04-15T06:11:32;99413.97;;;6.71;67.88
46583;BME280;32309;48.858;8.252;2023-04-15T06:13:35;99409.66;;;6.88;66.36
46583;BME280;32309;48.858;8.252;2023-04-15T06:15:41;99415.69;;;7.03;64.64
46583;BME280;32309;48.858;8.252;2023-04-15T06:17:42;99420.66;;;7.06;63.99
46583;BME280;32309;48.858;8.252;2023-04-15T06:19:42;99414.84;;;7.02;64.37
46583;BME280;32309;48.858;8.252;2023-04-15T06:21:45;99415.38;;;6.93;65.08
46583;BME280;32309;48.858;8.252;2023-04-15T06:23:45;99417.44;;;6.86;65.49
46583;BME280;32309;48.858;8.252;2023-04-15T06:25:46;99419.59;;;6.94;64.97
46583;BME280;32309;48.858;8.252;2023-04-15T06:27:48;99417.59;;;6.99;65.34
46583;BME280;32309;48.858;8.252;2023-04-15T06:29:51;99418.00;;;6.91;66.06
46583;BME280;32309;48.858;8.252;2023-04-15T06:31:51;99422.00;;;6.97;66.42
46583;BME280;32309;48.858;8.252;2023-04-15T06:33:52;99418.53;;;7.12;65.41
46583;BME280;32309;48.858;8.252;2023-04-15T06:35:52;99420.44;;;7.25;65.41
46583;BME280;32309;48.858;8.252;2023-04-15T06:37:53;99405.53;;;7.30;64.85
46583;BME280;32309;48.858;8.252;2023-04-15T06:40:03;99414.28;;;7.27;65.25
46583;BME280;32309;48.858;8.252;2023-04-15T06:42:09;99413.44;;;7.27;64.72
46583;BME280;32309;48.858;8.252;2023-04-15T06:44:10;99414.75;;;7.34;65.05
46583;BME280;32309;48.858;8.252;2023-04-15T06:46:10;99413.91;;;7.33;64.42
46583;BME280;32309;48.858;8.252;2023-04-15T06:48:21;99422.31;;;7.37;64.02
46583;BME280;32309;48.858;8.252;2023-04-15T06:50:37;99419.53;;;7.40;64.14
46583;BME280;32309;48.858;8.252;2023-04-15T06:52:38;99415.94;;;7.43;64.13
46583;BME280;32309;48.858;8.252;2023-04-15T06:54:40;99418.00;;;7.52;63.69
46583;BME280;32309;48.858;8.252;2023-04-15T06:56:43;99424.91;;;7.52;64.29
46583;BME280;32309;48.858;8.252;2023-04-15T06:58:48;99421.69;;;7.62;63.82
46583;BME280;32309;48.858;8.252;2023-04-15T07:00:51;99425.31;;;7.74;63.29
46583;BME280;32309;48.858;8.252;2023-04-15T07:03:01;99423.94;;;7.83;63.02
46583;BME280;32309;48.858;8.252;2023-04-15T07:05:03;99425.22;;;7.90;63.16
46583;BME280;32309;48.858;8.252;2023-04-15T07:07:07;99421.25;;;7.99;62.89
46583;BME280;32309;48.858;8.252;2023-04-15T07:09:08;99423.03;;;8.13;61.95
46583;BME280;32309;48.858;8.252;2023-04-15T07:11:16;99418.47;;;8.16;61.61
46583;BME280;32309;48.858;8.252;2023-04-15T07:13:18;99419.03;;;8.22;61.75
46583;BME280;32309;48.858;8.252;2023-04-15T07:15:19;99421.25;;;8.28;61.97
46583;BME280;32309;48.858;8.252;2023-04-15T07:17:36;99410.72;;;8.31;61.96
46583;BME280;32309;48.858;8.252;2023-04-15T07:19:43;99409.16;;;8.28;62.17
46583;BME280;32309;48.858;8.252;2023-04-15T07:21:44;99409.06;;;8.30;62.12
46583;BME280;32309;48.858;8.252;2023-04-15T07:23:53;99411.25;;;8.36;61.18
46583;BME280;32309;48.858;8.252;2023-04-15T07:25:57;99410.91;;;8.28;60.89
46583;BME280;32309;48.858;8.252;2023-04-15T07:28:03;99409.56;;;8.22;61.62
46583;BME280;32309;48.858;8.252;2023-04-15T07:30:06;99409.34;;;8.25;61.57
46583;BME280;32309;48.858;8.252;2023-04-15T07:32:09;99410.06;;;8.27;61.30
46583;BME280;32309;48.858;8.252;2023-04-15T07:34:12;99417.91;;;8.26;61.40
46583;BME280;32309;48.858;8.252;2023-04-15T07:36:13;99421.97;;;8.30;61.43
46583;BME280;32309;48.858;8.252;2023-04-15T07:38:16;99412.75;;;8.26;61.58
46583;BME280;32309;48.858;8.252;2023-04-15T07:40:16;99417.00;;;8.27;61.43
46583;BME280;32309;48.858;8.252;2023-04-15T07:42:24;99420.13;;;8.32;61.28
46583;BME280;32309;48.858;8.252;2023-04-15T07:44:28;99411.25;;;8.36;61.48
46583;BME280;32309;48.858;8.252;2023-04-15T07:46:45;99413.38;;;8.44;61.25
46583;BME280;32309;48.858;8.252;2023-04-15T07:48:55;99417.34;;;8.49;61.26
46583;BME280;32309;48.858;8.252;2023-04-15T07:50:56;99413.75;;;8.52;61.09
46583;BME280;32309;48.858;8.252;2023-04-15T07:52:56;99421.94;;;8.59;61.04
46583;BME280;32309;48.858;8.252;2023-04-15T07:54:57;99425.91;;;8.64;61.07
46583;BME280;32309;48.858;8.252;2023-04-15T07:57:19;99427.66;;;8.64;61.04
46583;BME280;32309;48.858;8.252;2023-04-15T07:59:20;99425.81;;;8.66;60.84
46583;BME280;32309;48.858;8.252;2023-04-15T08:01:20;99422.56;;;8.62;60.97
46583;BME280;32309;48.858;8.252;2023-04-15T08:03:29;99426.94;;;8.62;61.34
46583;BME280;32309;48.858;8.252;2023-04-15T08:05:30;99433.44;;;8.68;61.64
46583;BME280;32309;48.858;8.252;2023-04-15T08:07:31;99438.50;;;8.69;61.62
46583;BME280;32309;48.858;8.252;2023-04-15T08:09:31;99438.41;;;8.71;61.83
46583;BME280;32309;48.858;8.252;2023-04-15T08:11:31;99434.09;;;8.71;61.70
46583;BME280;32309;48.858;8.252;2023-04-15T08:13:32;99437.41;;;8.73;62.36
46583;BME280;32309;48.858;8.252;2023-04-15T08:15:32;99438.84;;;8.77;61.96
46583;BME280;32309;48.858;8.252;2023-04-15T08:17:32;99440.53;;;8.78;61.70
46583;BME280;32309;48.858;8.252;2023-04-15T08:19:33;99443.09;;;8.78;62.39
46583;BME280;32309;48.858;8.252;2023-04-15T08:21:33;99450.75;;;8.80;62.09
46583;BME280;32309;48.858;8.252;2023-04-15T08:23:33;99453.75;;;8.74;62.55
46583;BME280;32309;48.858;8.252;2023-04-15T08:25:33;99449.41;;;8.74;61.85
46583;BME280;32309;48.858;8.252;2023-04-15T08:27:34;99455.59;;;8.72;61.65
46583;BME280;32309;48.858;8.252;2023-04-15T08:29:34;99455.19;;;8.78;61.38
46583;BME280;32309;48.858;8.252;2023-04-15T08:31:34;99452.63;;;8.78;60.92
46583;BME280;32309;48.858;8.252;2023-04-15T08:33:35;99450.84;;;8.78;60.76
46583;BME280;32309;48.858;8.252;2023-04-15T08:35:35;99454.72;;;8.86;60.29
46583;BME280;32309;48.858;8.252;2023-04-15T08:37:36;99458.22;;;8.85;59.42
46583;BME280;32309;48.858;8.252;2023-04-15T08:39:37;99458.22;;;8.85;59.65
46583;BME280;32309;48.858;8.252;2023-04-15T08:41:55;99462.66;;;8.82;59.55
46583;BME280;32309;48.858;8.252;2023-04-15T08:44:01;99459.25;;;8.82;59.69
46583;BME280;32309;48.858;8.252;2023-04-15T08:48:51;99465.50;;;8.92;60.69
46583;BME280;32309;48.858;8.252;2023-04-15T08:50:56;99466.94;;;8.96;60.72
46583;BME280;32309;48.858;8.252;2023-04-15T08:52:58;99462.44;;;9.00;60.97
46583;BME280;32309;48.858;8.252;2023-04-15T08:54:59;99461.47;;;9.01;60.95
46583;BME280;32309;48.858;8.252;2023-04-15T08:57:01;99469.78;;;9.06;61.64
46583;BME280;32309;48.858;8.252;2023-04-15T08:59:02;99464.31;;;9.11;61.31
46583;BME280;32309;48.858;8.252;2023-04-15T09:01:03;99462.34;;;9.14;61.52
46583;BME280;32309;48.858;8.252;2023-04-15T09:03:04;99466.09;;;9.23;61.36
46583;BME280;32309;48.858;8.252;2023-04-15T09:05:07;99460.72;;;9.26;61.33
46583;BME280;32309;48.858;8.252;2023-04-15T09:07:08;99460.31;;;9.32;61.42
46583;BME280;32309;48.858;8.252;2023-04-15T09:09:08;99456.22;;;9.43;61.70
46583;BME280;32309;48.858;8.252;2023-04-15T09:11:13;99459.13;;;9.51;61.41
46583;BME280;32309;48.858;8.252;2023-04-15T09:13:17;99457.28;;;9.53;61.12
46583;BME280;32309;48.858;8.252;2023-04-15T09:15:17;99454.19;;;9.61;61.45
46583;BME280;32309;48.858;8.252;2023-04-15T09:17:18;99459.88;;;9.66;60.25
46583;BME280;32309;48.858;8.252;2023-04-15T09:19:21;99464.00;;;9.69;60.79
46583;BME280;32309;48.858;8.252;2023-04-15T09:21:22;99467.03;;;9.75;60.42
46583;BME280;32309;48.858;8.252;2023-04-15T09:23:23;99467.50;;;9.80;59.84
46583;BME280;32309;48.858;8.252;2023-04-15T09:25:24;99466.19;;;9.88;60.22
46583;BME280;32309;48.858;8.252;2023-04-15T09:27:29;99468.56;;;9.91;59.87
46583;BME280;32309;48.858;8.252;2023-04-15T09:29:29;99465.88;;;9.92;59.67
46583;BME280;32309;48.858;8.252;2023-04-15T09:31:30;99479.84;;;10.03;60.17
46583;BME280;32309;48.858;8.252;2023-04-15T09:33:30;99475.91;;;10.10;59.19
46583;BME280;32309;48.858;8.252;2023-04-15T09:35:31;99479.63;;;10.19;57.68
46583;BME280;32309;48.858;8.252;2023-04-15T09:37:34;99478.06;;;10.29;56.93
46583;BME280;32309;48.858;8.252;2023-04-15T09:39:48;99481.72;;;10.39;57.85
46583;BME280;32309;48.858;8.252;2023-04-15T09:42:03;99481.47;;;10.55;58.29
46583;BME280;32309;48.858;8.252;2023-04-15T09:44:04;99483.09;;;10.69;58.43
46583;BME280;32309;48.858;8.252;2023-04-15T09:46:05;99475.91;;;10.73;57.39
46583;BME280;32309;48.858;8.252;2023-04-15T09:48:16;99479.00;;;10.78;57.44
46583;BME280;32309;48.858;8.252;2023-04-15T09:50:20;99478.84;;;10.92;57.04
46583;BME280;32309;48.858;8.252;2023-04-15T09:52:20;99477.75;;;11.08;57.89
46583;BME280;32309;48.858;8.252;2023-04-15T09:54:21;99476.97;;;11.19;57.36
46583;BME280;32309;48.858;8.252;2023-04-15T09:56:21;99480.66;;;11.27;56.61
46583;BME280;32309;48.858;8.252;2023-04-15T09:58:22;99478.22;;;11.37;57.02
46583;BME280;32309;48.858;8.252;2023-04-15T10:00:24;99474.72;;;11.49;56.90
46583;BME280;32309;48.858;8.252;2023-04-15T10:02:24;99477.13;;;11.64;56.59
46583;BME280;32309;48.858;8.252;2023-04-15T10:04:27;99473.72;;;11.75;55.53
46583;BME280;32309;48.858;8.252;2023-04-15T10:06:28;99479.88;;;11.85;56.66
46583;BME280;32309;48.858;8.252;2023-04-15T10:08:30;99470.38;;;11.97;56.22
46583;BME280;32309;48.858;8.252;2023-04-15T10:10:32;99477.56;;;12.05;55.63
46583;BME280;32309;48.858;8.252;2023-04-15T10:12:33;99480.75;;;12.08;54.26
46583;BME280;32309;48.858;8.252;2023-04-15T10:14:36;99484.88;;;12.11;54.82
46583;BME280;32309;48.858;8.252;2023-04-15T10:16:37;99478.63;;;12.13;54.51
46583;BME280;32309;48.858;8.252;2023-04-15T10:18:42;99481.56;;;12.20;53.93
46583;BME280;32309;48.858;8.252;2023-04-15T10:20:43;99473.91;;;12.30;54.29
46583;BME280;32309;48.858;8.252;2023-04-15T10:22:46;99479.09;;;12.41;53.61
46583;BME280;32309;48.858;8.252;2023-04-15T10:24:54;99479.22;;;12.51;51.82
46583;BME280;32309;48.858;8.252;2023-04-15T10:26:55;99490.84;;;12.68;50.43
46583;BME280;32309;48.858;8.252;2023-04-15T10:28:56;99496.44;;;12.75;49.92
46583;BME280;32309;48.858;8.252;2023-04-15T10:30:57;99500.44;;;12.79;49.66
46583;BME280;32309;48.858;8.252;2023-04-15T10:32:59;99499.03;;;12.75;49.76
46583;BME280;32309;48.858;8.252;2023-04-15T10:35:00;99494.25;;;12.80;50.18
46583;BME280;32309;48.858;8.252;2023-04-15T10:37:01;99501.25;;;12.79;50.49
46583;BME280;32309;48.858;8.252;2023-04-15T10:41:24;99494.84;;;12.84;50.35
46583;BME280;32309;48.858;8.252;2023-04-15T10:43:30;99496.53;;;12.73;50.73
46583;BME280;32309;48.858;8.252;2023-04-15T10:45:34;99495.72;;;12.73;50.87
46583;BME280;32309;48.858;8.252;2023-04-15T10:47:36;99500.09;;;12.72;50.73
46583;BME280;32309;48.858;8.252;2023-04-15T10:49:42;99494.50;;;12.77;51.56
46583;BME280;32309;48.858;8.252;2023-04-15T10:51:50;99503.38;;;12.86;51.63
46583;BME280;32309;48.858;8.252;2023-04-15T10:53:56;99505.59;;;12.90;51.24
46583;BME280;32309;48.858;8.252;2023-04-15T10:55:58;99503.72;;;12.92;51.54
46583;BME280;32309;48.858;8.252;2023-04-15T10:57:59;99500.38;;;13.02;52.20
46583;BME280;32309;48.858;8.252;2023-04-15T11:02:06;99507.91;;;13.16;50.40
46583;BME280;32309;48.858;8.252;2023-04-15T11:04:07;99510.84;;;13.11;49.92
46583;BME280;32309;48.858;8.252;2023-04-15T11:06:07;99518.78;;;13.10;50.09
46583;BME280;32309;48.858;8.252;2023-04-15T11:08:08;99509.44;;;13.19;50.04
46583;BME280;32309;48.858;8.252;2023-04-15T11:12:13;99518.91;;;13.20;49.52
46583;BME280;32309;48.858;8.252;2023-04-15T11:14:14;99513.44;;;13.23;49.82
46583;BME280;32309;48.858;8.252;2023-04-15T11:16:15;99519.91;;;13.28;50.09
46583;BME280;32309;48.858;8.252;2023-04-15T11:18:19;99515.53;;;13.29;50.44
46583;BME280;32309;48.858;8.252;2023-04-15T11:20:21;99518.56;;;13.45;49.94
46583;BME280;32309;48.858;8.252;2023-04-15T11:22:22;99521.50;;;13.52;48.42
46583;BME280;32309;48.858;8.252;2023-04-15T11:24:23;99519.22;;;13.59;48.73
46583;BME280;32309;48.858;8.252;2023-04-15T11:26:26;99524.41;;;13.59;48.55
46583;BME280;32309;48.858;8.252;2023-04-15T11:28:27;99522.97;;;13.66;47.87
46583;BME280;32309;48.858;8.252;2023-04-15T11:30:28;99524.50;;;13.69;48.08